createdAt,value
2022-08-20T00:02:55.244Z,24.50
2022-08-20T00:08:00.376Z,24.44
2022-08-20T00:13:03.323Z,24.46
2022-08-20T00:18:07.149Z,24.45
2022-08-20T00:23:11.881Z,24.53
2022-08-20T00:28:15.149Z,24.42
2022-08-20T00:33:21.382Z,24.45
2022-08-20T00:38:26.359Z,24.50
2022-08-20T00:43:33.289Z,24.43
2022-08-20T00:48:38.741Z,24.44
2022-08-20T00:53:43.082Z,24.48
2022-08-20T00:58:46.227Z,24.45
2022-08-20T01:03:48.935Z,24.42
2022-08-20T01:08:53.404Z,24.42
2022-08-20T01:13:57.535Z,24.44
2022-08-20T01:19:01.346Z,24.29
2022-08-20T01:24:09.418Z,24.26
2022-08-20T01:29:22.085Z,24.21
2022-08-20T01:34:24.730Z,24.15
2022-08-20T01:39:30.806Z,24.15
2022-08-20T01:44:36.055Z,24.12
2022-08-20T01:49:43.910Z,24.17
2022-08-20T01:54:46.983Z,24.18
2022-08-20T01:59:51.577Z,24.16
2022-08-20T02:04:54.245Z,24.05
2022-08-20T02:09:56.920Z,23.96
2022-08-20T02:15:01.021Z,23.93
2022-08-20T02:20:07.512Z,23.85
2022-08-20T02:25:11.369Z,23.85
2022-08-20T02:30:27.566Z,23.93
2022-08-20T02:35:32.198Z,23.71
2022-08-20T02:40:37.521Z,23.72
2022-08-20T02:45:44.511Z,23.75
2022-08-20T02:50:48.933Z,23.72
2022-08-20T02:55:52.312Z,23.71
2022-08-20T03:00:56.793Z,23.69
2022-08-20T03:06:00.387Z,23.65
2022-08-20T03:11:03.180Z,23.58
2022-08-20T03:16:08.274Z,23.57
2022-08-20T03:21:14.641Z,23.63
2022-08-20T03:26:17.624Z,23.52
2022-08-20T03:31:21.635Z,23.56
2022-08-20T03:36:28.023Z,23.59
2022-08-20T03:41:32.127Z,23.42
2022-08-20T03:46:36.151Z,23.55
2022-08-20T03:51:56.099Z,23.39
2022-08-20T03:57:02.820Z,23.45
2022-08-20T04:02:16.560Z,23.42
2022-08-20T04:07:25.547Z,23.21
2022-08-20T04:12:28.263Z,23.25
2022-08-20T04:17:33.456Z,23.21
2022-08-20T04:22:36.850Z,23.31
2022-08-20T04:27:41.764Z,23.26
2022-08-20T04:32:45.851Z,23.26
2022-08-20T04:37:49.275Z,23.30
2022-08-20T04:42:53.294Z,23.21
2022-08-20T04:47:58.184Z,23.26
2022-08-20T04:53:00.991Z,23.19
2022-08-20T04:58:05.658Z,23.32
2022-08-20T05:03:09.773Z,23.19
2022-08-20T05:08:19.632Z,23.20
2022-08-20T05:13:27.189Z,23.13
2022-08-20T05:18:32.884Z,23.16
2022-08-20T05:23:37.287Z,23.18
2022-08-20T05:28:57.372Z,23.30
2022-08-20T05:34:03.053Z,23.22
2022-08-20T05:39:05.759Z,23.18
2022-08-20T05:44:13.137Z,23.19
2022-08-20T05:49:20.078Z,23.07
2022-08-20T05:54:23.892Z,22.96
2022-08-20T05:59:27.552Z,22.91
2022-08-20T06:04:34.228Z,22.98
2022-08-20T06:09:37.009Z,23.13
2022-08-20T06:14:39.718Z,23.07
2022-08-20T06:19:45.281Z,23.27
2022-08-20T06:24:49.715Z,23.19
2022-08-20T06:29:53.302Z,23.20
2022-08-20T06:34:57.400Z,23.28
2022-08-20T06:40:02.674Z,23.43
2022-08-20T06:45:06.222Z,23.52
2022-08-20T06:50:11.898Z,23.64
2022-08-20T06:55:16.306Z,23.73
2022-08-20T07:00:20.922Z,23.62
2022-08-20T07:05:24.938Z,23.68
2022-08-20T07:10:28.530Z,23.71
2022-08-20T07:15:32.217Z,23.71
2022-08-20T07:20:38.344Z,23.74
2022-08-20T07:25:42.377Z,23.64
2022-08-20T07:31:06.541Z,23.71
2022-08-20T07:36:17.613Z,23.71
2022-08-20T07:41:21.010Z,23.70
2022-08-20T07:46:23.746Z,23.56
2022-08-20T07:51:36.609Z,23.59
2022-08-20T07:56:39.312Z,23.58
2022-08-20T08:01:42.205Z,23.52
2022-08-20T08:06:46.303Z,23.50
2022-08-20T08:11:50.977Z,23.59
2022-08-20T08:16:54.880Z,23.50
2022-08-20T08:21:58.967Z,23.54
2022-08-20T08:27:01.713Z,23.58
2022-08-20T08:32:05.657Z,23.62
2022-08-20T08:37:09.723Z,23.69
2022-08-20T08:42:22.477Z,23.55
2022-08-20T08:47:29.280Z,23.56
2022-08-20T08:52:35.845Z,23.52
2022-08-20T08:57:38.510Z,23.57
2022-08-20T09:02:42.491Z,23.60
2022-08-20T09:07:50.186Z,23.61
2022-08-20T09:12:54.114Z,23.62
2022-08-20T09:17:56.985Z,23.59
2022-08-20T09:23:06.217Z,23.66
2022-08-20T09:28:08.875Z,23.66
2022-08-20T09:33:12.658Z,23.75
2022-08-20T09:38:16.824Z,23.60
2022-08-20T09:43:19.568Z,23.69
2022-08-20T09:48:29.722Z,23.63
2022-08-20T09:53:36.502Z,23.61
2022-08-20T09:58:46.381Z,23.63
2022-08-20T10:03:50.392Z,23.54
2022-08-20T10:08:54.424Z,23.67
2022-08-20T10:13:57.137Z,23.78
2022-08-20T10:18:59.785Z,23.72
2022-08-20T10:24:04.289Z,23.76
2022-08-20T10:29:06.987Z,23.88
2022-08-20T10:34:09.880Z,23.81
2022-08-20T10:39:14.259Z,23.90
2022-08-20T10:44:17.638Z,23.85
2022-08-20T10:49:20.360Z,23.87
2022-08-20T10:54:24.995Z,23.89
2022-08-20T10:59:27.722Z,23.99
2022-08-20T11:04:30.428Z,24.07
2022-08-20T11:09:34.578Z,24.08
2022-08-20T11:14:37.332Z,24.08
2022-08-20T11:19:41.536Z,24.07
2022-08-20T11:24:46.061Z,24.09
2022-08-20T11:29:50.084Z,24.13
2022-08-20T11:34:52.989Z,24.08
2022-08-20T11:39:57.078Z,24.08
2022-08-20T11:44:59.839Z,24.14
2022-08-20T11:50:04.731Z,24.14
2022-08-20T11:55:11.441Z,24.16
2022-08-20T12:00:18.190Z,24.12
2022-08-20T12:05:21.470Z,24.01
2022-08-20T12:10:26.791Z,24.03
2022-08-20T12:15:29.756Z,24.12
2022-08-20T12:20:32.490Z,24.10
2022-08-20T12:25:36.591Z,24.12
2022-08-20T12:30:39.454Z,24.16
2022-08-20T12:35:42.273Z,24.09
2022-08-20T12:40:46.635Z,24.10
2022-08-20T12:45:49.392Z,24.09
2022-08-20T12:50:52.725Z,24.17
2022-08-20T12:55:56.850Z,24.12
2022-08-20T13:00:59.608Z,24.19
2022-08-20T13:06:02.655Z,24.18
2022-08-20T13:11:07.014Z,24.17
2022-08-20T13:16:09.798Z,24.20
2022-08-20T13:21:12.479Z,24.20
2022-08-20T13:26:16.553Z,24.21
2022-08-20T13:31:19.307Z,24.20
2022-08-20T13:36:22.853Z,24.23
2022-08-20T13:41:27.103Z,24.20
2022-08-20T13:46:29.859Z,24.26
2022-08-20T13:51:32.575Z,24.29
2022-08-20T13:56:37.060Z,24.29
2022-08-20T14:01:39.934Z,24.27
2022-08-20T14:06:42.826Z,24.29
2022-08-20T14:11:46.857Z,24.30
2022-08-20T14:16:49.549Z,24.35
2022-08-20T14:21:52.478Z,24.27
2022-08-20T14:26:56.498Z,24.33
2022-08-20T14:31:59.173Z,24.37
2022-08-20T14:37:11.760Z,24.39
2022-08-20T14:42:16.071Z,24.40
2022-08-20T14:47:20.625Z,24.38
2022-08-20T14:52:28.259Z,24.41
2022-08-20T14:57:32.750Z,24.36
2022-08-20T15:02:35.750Z,24.38
2022-08-20T15:07:40.610Z,24.41
2022-08-20T15:12:44.839Z,24.44
2022-08-20T15:17:49.258Z,24.44
2022-08-20T15:22:53.526Z,24.41
2022-08-20T15:28:01.725Z,24.43
2022-08-20T15:33:04.922Z,24.43
2022-08-20T15:38:07.807Z,24.50
2022-08-20T15:43:11.836Z,24.47
2022-08-20T15:48:16.739Z,24.50
2022-08-20T15:53:25.834Z,24.48
2022-08-20T15:58:37.386Z,24.52
2022-08-20T16:03:59.085Z,24.50
2022-08-20T16:09:11.704Z,24.47
2022-08-20T16:14:18.693Z,24.48
2022-08-20T16:19:24.479Z,24.50
2022-08-20T16:24:27.165Z,24.49
2022-08-20T16:29:42.861Z,24.46
2022-08-20T16:34:48.421Z,24.49
2022-08-20T16:39:57.183Z,24.46
2022-08-20T16:45:01.614Z,24.43
2022-08-20T16:50:07.486Z,24.45
2022-08-20T16:55:10.838Z,24.42
2022-08-20T17:00:22.134Z,24.39
2022-08-20T17:05:26.485Z,24.35
2022-08-20T17:10:32.973Z,24.31
2022-08-20T17:15:37.179Z,24.32
2022-08-20T17:20:45.296Z,24.34
2022-08-20T17:25:58.052Z,24.31
2022-08-20T17:31:02.114Z,24.23
2022-08-20T17:36:11.084Z,24.24
2022-08-20T17:41:19.320Z,24.19
2022-08-20T17:46:24.487Z,24.20
2022-08-20T17:51:37.748Z,24.16
2022-08-20T17:56:42.030Z,24.13
2022-08-20T18:01:46.191Z,24.09
2022-08-20T18:06:53.345Z,24.05
2022-08-20T18:12:00.750Z,24.04
2022-08-20T18:17:17.614Z,24.00
2022-08-20T18:22:24.603Z,23.95
2022-08-20T18:27:29.986Z,23.91
2022-08-20T18:32:35.949Z,23.85
2022-08-20T18:37:39.059Z,23.77
2022-08-20T18:42:41.961Z,23.74
2022-08-20T18:47:46.762Z,23.69
2022-08-20T18:53:08.530Z,23.67
2022-08-20T18:58:13.210Z,23.60
2022-08-20T19:03:24.621Z,23.52
2022-08-20T19:08:44.397Z,23.52
2022-08-20T19:14:02.286Z,23.49
2022-08-20T19:19:14.580Z,23.46
2022-08-20T19:24:23.641Z,23.40
2022-08-20T19:29:29.178Z,23.33
2022-08-20T19:34:33.818Z,23.24
2022-08-20T19:39:37.402Z,23.16
2022-08-20T19:44:50.967Z,23.08
2022-08-20T19:50:00.711Z,22.99
2022-08-20T19:55:04.231Z,22.95
2022-08-20T20:00:12.223Z,23.01
2022-08-20T20:05:17.718Z,22.84
2022-08-20T20:10:32.301Z,22.83
2022-08-20T20:15:35.661Z,22.68
2022-08-20T20:20:55.754Z,22.69
2022-08-20T20:26:02.247Z,22.71
2022-08-20T20:31:08.640Z,22.65
2022-08-20T20:36:14.032Z,22.64
2022-08-20T20:41:23.009Z,22.52
2022-08-20T20:46:27.557Z,22.47
2022-08-20T20:51:33.952Z,22.42
2022-08-20T20:56:38.777Z,22.38
2022-08-20T21:01:49.851Z,22.39
2022-08-20T21:06:57.305Z,22.34
2022-08-20T21:12:00.100Z,22.36
2022-08-20T21:17:04.847Z,22.36
2022-08-20T21:22:09.372Z,22.30
2022-08-20T21:27:12.674Z,22.28
2022-08-20T21:32:17.380Z,22.28
2022-08-20T21:37:21.381Z,22.20
2022-08-20T21:42:28.930Z,22.15
2022-08-20T21:47:32.244Z,22.12
2022-08-20T21:52:37.884Z,22.10
2022-08-20T21:57:48.473Z,22.07
2022-08-20T22:02:51.267Z,21.98
2022-08-20T22:07:55.356Z,21.94
2022-08-20T22:12:58.227Z,21.82
2022-08-20T22:18:01.076Z,21.79
2022-08-20T22:23:06.838Z,21.78
2022-08-20T22:28:09.599Z,21.77
2022-08-20T22:33:14.382Z,21.70
2022-08-20T22:38:18.581Z,21.65
2022-08-20T22:43:21.792Z,21.58
2022-08-20T22:48:24.541Z,21.48
2022-08-20T22:53:28.819Z,21.41
2022-08-20T22:58:31.606Z,21.44
2022-08-20T23:03:39.658Z,21.37
2022-08-20T23:08:45.366Z,21.32
2022-08-20T23:13:48.708Z,21.32
2022-08-20T23:18:51.405Z,21.24
2022-08-20T23:23:55.483Z,21.16
2022-08-20T23:28:58.179Z,21.11
2022-08-20T23:34:00.845Z,21.10
2022-08-20T23:39:07.436Z,21.14
2022-08-20T23:44:25.327Z,21.08
2022-08-20T23:49:31.390Z,21.06
2022-08-20T23:54:35.638Z,21.01
2022-08-20T23:59:38.291Z,20.88
